createdAt,value
2023-02-23T00:04:51.728Z,100930.31
2023-02-23T00:09:53.007Z,100932.78
2023-02-23T00:14:51.751Z,100938.50
2023-02-23T00:19:50.577Z,100925.06
2023-02-23T00:24:50.327Z,100930.75
2023-02-23T00:29:51.605Z,100931.97
2023-02-23T00:34:50.531Z,100932.53
2023-02-23T00:39:49.229Z,100928.06
2023-02-23T00:44:49.103Z,100939.69
2023-02-23T00:49:49.327Z,100937.25
2023-02-23T00:54:48.120Z,100925.25
2023-02-23T00:59:47.136Z,100926.16
2023-02-23T01:04:47.386Z,100920.25
2023-02-23T01:09:47.837Z,100915.78
2023-02-23T01:14:47.752Z,100919.66
2023-02-23T01:19:46.538Z,100914.78
2023-02-23T01:24:45.375Z,100920.16
2023-02-23T01:29:45.691Z,100922.63
2023-02-23T01:34:46.778Z,100924.03
2023-02-23T01:39:45.627Z,100928.56
2023-02-23T01:45:22.574Z,100932.06
2023-02-23T01:50:22.018Z,100916.59
2023-02-23T01:55:23.663Z,100920.94
2023-02-23T02:00:26.542Z,100914.44
2023-02-23T02:05:27.002Z,100921.31
2023-02-23T02:10:46.796Z,100926.25
2023-02-23T02:16:15.198Z,100919.63
2023-02-23T02:21:40.200Z,100917.31
2023-02-23T02:26:48.206Z,100919.16
2023-02-23T02:32:24.925Z,100921.59
2023-02-23T02:37:47.794Z,100930.13
2023-02-23T02:43:01.532Z,100929.25
2023-02-23T02:48:16.327Z,100930.63
2023-02-23T02:53:23.779Z,100932.06
2023-02-23T02:58:25.698Z,100926.53
2023-02-23T03:03:53.925Z,100935.13
2023-02-23T03:09:19.593Z,100935.38
2023-02-23T03:14:46.927Z,100947.31
2023-02-23T03:20:11.618Z,100954.53
2023-02-23T03:25:33.082Z,100954.09
2023-02-23T03:30:59.161Z,100961.66
2023-02-23T03:36:21.472Z,100963.63
2023-02-23T03:41:41.813Z,100961.59
2023-02-23T03:46:59.876Z,100968.78
2023-02-23T03:52:19.990Z,100963.19
2023-02-23T03:57:41.266Z,100968.88
2023-02-23T04:02:59.836Z,100962.72
2023-02-23T04:08:22.441Z,100964.16
2023-02-23T04:13:24.918Z,100968.38
2023-02-23T04:18:26.510Z,100959.91
2023-02-23T04:23:26.073Z,100972.69
2023-02-23T04:28:28.430Z,100976.22
2023-02-23T04:33:27.309Z,100985.56
2023-02-23T04:38:26.007Z,100987.34
2023-02-23T04:43:26.036Z,100997.31
2023-02-23T04:48:26.839Z,100991.00
2023-02-23T04:53:26.200Z,100995.69
2023-02-23T04:58:27.192Z,100987.59
2023-02-23T05:03:26.244Z,101000.88
2023-02-23T05:08:24.999Z,101001.13
2023-02-23T05:13:23.870Z,101010.31
2023-02-23T05:18:25.367Z,101017.16
2023-02-23T05:23:24.248Z,101031.44
2023-02-23T05:28:23.034Z,101024.09
2023-02-23T05:33:23.187Z,101029.31
2023-02-23T05:38:22.420Z,101030.66
2023-02-23T05:43:21.433Z,101037.75
2023-02-23T05:48:20.268Z,101051.66
2023-02-23T05:53:20.707Z,101056.66
2023-02-23T05:58:21.678Z,101071.41
2023-02-23T06:03:20.699Z,101091.03
2023-02-23T06:08:23.868Z,101088.69
2023-02-23T06:13:22.656Z,101104.09
2023-02-23T06:18:21.979Z,101109.50
2023-02-23T06:23:22.612Z,101112.03
2023-02-23T06:28:21.368Z,101118.53
2023-02-23T06:33:20.274Z,101123.22
2023-02-23T06:38:19.068Z,101130.56
2023-02-23T06:43:19.251Z,101130.78
2023-02-23T06:48:17.946Z,101136.03
2023-02-23T06:53:16.841Z,101137.66
2023-02-23T06:58:15.599Z,101130.69
2023-02-23T07:03:16.372Z,101131.06
2023-02-23T07:08:15.237Z,101130.69
2023-02-23T07:13:14.115Z,101123.41
2023-02-23T07:18:12.901Z,101140.31
2023-02-23T07:23:13.040Z,101139.03
2023-02-23T07:28:14.288Z,101140.09
2023-02-23T07:33:13.086Z,101144.97
2023-02-23T07:38:13.638Z,101153.81
2023-02-23T07:43:12.412Z,101157.03
2023-02-23T07:48:11.180Z,101159.50
2023-02-23T07:53:09.982Z,101172.78
2023-02-23T07:58:10.488Z,101169.59
2023-02-23T08:03:09.390Z,101172.50
2023-02-23T08:08:08.690Z,101178.47
2023-02-23T08:13:09.368Z,101172.03
2023-02-23T08:18:08.463Z,101177.03
2023-02-23T08:23:07.421Z,101180.38
2023-02-23T08:28:07.023Z,101181.06
2023-02-23T08:33:07.442Z,101186.00
2023-02-23T08:38:06.162Z,101196.31
2023-02-23T08:43:05.007Z,101198.59
2023-02-23T08:48:03.752Z,101205.69
2023-02-23T08:53:04.261Z,101201.28
2023-02-23T08:58:02.992Z,101210.56
2023-02-23T09:03:01.740Z,101207.09
2023-02-23T09:08:01.084Z,101206.84
2023-02-23T09:13:01.254Z,101205.44
2023-02-23T09:18:02.649Z,101202.31
2023-02-23T09:23:01.645Z,101208.63
2023-02-23T09:28:01.825Z,101205.34
2023-02-23T09:33:00.593Z,101204.38
2023-02-23T09:37:59.380Z,101206.69
2023-02-23T09:43:07.227Z,101203.88
2023-02-23T09:48:25.883Z,101195.66
2023-02-23T09:53:38.337Z,101208.88
2023-02-23T09:58:38.488Z,101208.47
2023-02-23T10:03:41.020Z,101198.00
2023-02-23T10:08:48.620Z,101199.66
2023-02-23T10:13:57.463Z,101197.56
2023-02-23T10:19:05.422Z,101197.34
2023-02-23T10:24:08.573Z,101189.31
2023-02-23T10:29:22.638Z,101198.56
2023-02-23T10:34:23.579Z,101178.94
2023-02-23T10:39:22.444Z,101178.22
2023-02-23T10:44:25.406Z,101176.81
2023-02-23T10:49:30.478Z,101162.09
2023-02-23T10:54:37.478Z,101171.38
2023-02-23T10:59:37.720Z,101151.34
2023-02-23T11:04:36.504Z,101152.50
2023-02-23T11:09:46.399Z,101142.06
2023-02-23T11:14:47.079Z,101153.09
2023-02-23T11:19:46.498Z,101145.50
2023-02-23T11:24:45.886Z,101149.53
2023-02-23T11:29:47.964Z,101141.44
2023-02-23T11:34:49.427Z,101145.09
2023-02-23T11:39:53.891Z,101140.50
2023-02-23T11:45:04.671Z,101148.34
2023-02-23T11:50:06.039Z,101156.25
2023-02-23T11:55:09.000Z,101159.94
2023-02-23T12:00:22.426Z,101175.03
2023-02-23T12:05:25.586Z,101162.53
2023-02-23T12:10:27.778Z,101175.91
2023-02-23T12:15:37.523Z,101161.03
2023-02-23T12:20:42.540Z,101167.50
2023-02-23T12:25:47.449Z,101160.75
2023-02-23T12:30:52.153Z,101173.81
2023-02-23T12:35:57.769Z,101172.63
2023-02-23T12:41:04.714Z,101170.00
2023-02-23T12:46:10.872Z,101169.53
2023-02-23T12:51:19.250Z,101172.44
2023-02-23T12:56:32.806Z,101171.84
2023-02-23T13:01:37.677Z,101172.63
2023-02-23T13:06:47.432Z,101168.72
2023-02-23T13:12:26.428Z,101159.31
2023-02-23T13:17:38.320Z,101180.94
2023-02-23T13:22:46.347Z,101173.91
2023-02-23T13:27:52.324Z,101174.03
2023-02-23T13:32:53.844Z,101175.38
2023-02-23T13:37:56.286Z,101190.03
2023-02-23T13:43:07.786Z,101185.97
2023-02-23T13:48:25.994Z,101193.03
2023-02-23T13:53:37.485Z,101193.81
2023-02-23T13:58:47.231Z,101192.97
2023-02-23T14:03:54.700Z,101205.91
2023-02-23T14:08:59.187Z,101199.34
2023-02-23T14:14:02.619Z,101198.75
2023-02-23T14:19:33.225Z,101202.84
2023-02-23T14:24:32.002Z,101197.84
2023-02-23T14:29:33.059Z,101209.16
2023-02-23T14:34:51.402Z,101201.84
2023-02-23T14:39:52.321Z,101202.44
2023-02-23T14:44:52.903Z,101191.72
2023-02-23T14:49:57.252Z,101194.13
2023-02-23T14:55:22.235Z,101193.81
2023-02-23T15:00:24.198Z,101189.91
2023-02-23T15:05:26.992Z,101199.44
2023-02-23T15:10:29.487Z,101197.31
2023-02-23T15:15:30.905Z,101199.25
2023-02-23T15:25:39.549Z,101209.22
2023-02-23T15:30:47.130Z,101223.03
2023-02-23T15:35:51.741Z,101233.53
2023-02-23T15:40:55.792Z,101228.41
2023-02-23T15:45:55.925Z,101232.22
2023-02-23T15:50:58.522Z,101230.16
2023-02-23T15:56:01.024Z,101242.53
2023-02-23T16:01:06.318Z,101248.28
2023-02-23T16:06:12.527Z,101245.41
2023-02-23T16:11:19.478Z,101254.44
2023-02-23T16:16:20.867Z,101261.84
2023-02-23T16:21:24.509Z,101268.56
2023-02-23T16:26:29.750Z,101276.84
2023-02-23T16:31:43.598Z,101282.91
2023-02-23T16:36:44.115Z,101288.13
2023-02-23T16:41:47.495Z,101287.81
2023-02-23T16:46:59.532Z,101295.63
2023-02-23T16:52:01.830Z,101299.91
2023-02-23T16:57:00.713Z,101302.84
2023-02-23T17:01:59.489Z,101297.03
2023-02-23T17:07:00.939Z,101314.06
2023-02-23T17:12:00.100Z,101314.13
2023-02-23T17:17:01.508Z,101314.06
2023-02-23T17:22:01.711Z,101321.09
2023-02-23T17:27:00.711Z,101315.59
2023-02-23T17:32:03.223Z,101326.41
2023-02-23T17:37:07.538Z,101334.13
2023-02-23T17:42:09.789Z,101334.03
2023-02-23T17:47:11.827Z,101323.97
2023-02-23T17:52:12.234Z,101331.03
2023-02-23T17:57:12.168Z,101334.22
2023-02-23T18:02:23.849Z,101334.84
2023-02-23T18:07:29.743Z,101337.56
2023-02-23T18:12:29.552Z,101338.97
2023-02-23T18:17:29.784Z,101339.59
2023-02-23T18:22:33.036Z,101349.31
2023-02-23T18:27:34.359Z,101345.56
2023-02-23T18:32:38.216Z,101350.56
2023-02-23T18:37:39.637Z,101349.78
2023-02-23T18:42:50.413Z,101351.03
2023-02-23T18:47:52.177Z,101352.72
2023-02-23T18:53:05.184Z,101360.75
2023-02-23T18:58:07.792Z,101362.69
2023-02-23T19:03:09.374Z,101362.66
2023-02-23T19:08:13.601Z,101363.38
2023-02-23T19:13:13.270Z,101370.97
2023-02-23T19:18:13.747Z,101368.66
2023-02-23T19:23:16.264Z,101377.88
2023-02-23T19:28:19.090Z,101378.66
2023-02-23T19:33:24.378Z,101376.53
2023-02-23T19:38:28.319Z,101381.06
2023-02-23T19:43:29.304Z,101386.13
2023-02-23T19:48:31.693Z,101381.22
2023-02-23T19:53:34.056Z,101389.16
2023-02-23T19:58:35.319Z,101376.41
2023-02-23T20:03:36.097Z,101385.25
2023-02-23T20:08:36.465Z,101374.34
2023-02-23T20:13:39.228Z,101382.22
2023-02-23T20:18:41.570Z,101374.59
2023-02-23T20:23:43.225Z,101367.25
2023-02-23T20:28:44.360Z,101360.38
2023-02-23T20:33:44.227Z,101361.31
2023-02-23T20:38:47.198Z,101360.47
2023-02-23T20:43:46.583Z,101363.56
2023-02-23T20:48:45.451Z,101359.84
2023-02-23T20:53:48.767Z,101371.13
2023-02-23T20:58:47.884Z,101360.78
2023-02-23T21:03:49.252Z,101360.53
2023-02-23T21:08:50.357Z,101350.41
2023-02-23T21:13:49.965Z,101342.03
2023-02-23T21:18:53.792Z,101348.91
2023-02-23T21:23:54.068Z,101353.91
2023-02-23T21:28:52.764Z,101348.34
2023-02-23T21:33:51.698Z,101351.41
2023-02-23T21:38:51.428Z,101353.56
2023-02-23T21:43:53.632Z,101355.88
2023-02-23T21:48:52.695Z,101358.59
2023-02-23T21:53:51.694Z,101347.94
2023-02-23T21:58:53.499Z,101348.66
2023-02-23T22:03:54.904Z,101340.88
2023-02-23T22:08:54.180Z,101339.44
2023-02-23T22:13:58.974Z,101339.25
2023-02-23T22:18:58.496Z,101341.63
2023-02-23T22:23:57.430Z,101335.25
2023-02-23T22:28:57.674Z,101327.56
2023-02-23T22:33:56.577Z,101327.94
2023-02-23T22:38:59.084Z,101320.97
2023-02-23T22:43:59.229Z,101314.06
2023-02-23T22:48:57.955Z,101314.25
2023-02-23T22:53:56.730Z,101306.16
2023-02-23T22:58:55.959Z,101311.72
2023-02-23T23:03:56.573Z,101304.81
2023-02-23T23:08:58.254Z,101298.63
2023-02-23T23:14:02.133Z,101294.56
2023-02-23T23:19:04.669Z,101289.31
2023-02-23T23:24:06.056Z,101281.91
2023-02-23T23:29:07.204Z,101278.00
2023-02-23T23:34:10.413Z,101273.22
2023-02-23T23:39:12.130Z,101263.47
2023-02-23T23:44:13.329Z,101258.91
2023-02-23T23:49:16.054Z,101253.28
2023-02-23T23:54:16.994Z,101252.31
2023-02-23T23:59:17.417Z,101250.09
